sensor_id;sensor_type;location;lat;lon;timestamp;temperature;humidity
6008;DHT22;3032;49.484;11.112;2023-06-14T00:00:18;17.60;62.90
6008;DHT22;3032;49.484;11.112;2023-06-14T00:02:44;17.60;63.10
6008;DHT22;3032;49.484;11.112;2023-06-14T00:05:09;17.60;63.30
6008;DHT22;3032;49.484;11.112;2023-06-14T00:07:41;17.70;63.00
6008;DHT22;3032;49.484;11.112;2023-06-14T00:10:14;17.60;63.40
6008;DHT22;3032;49.484;11.112;2023-06-14T00:12:40;17.50;64.10
6008;DHT22;3032;49.484;11.112;2023-06-14T00:15:06;17.90;64.60
6008;DHT22;3032;49.484;11.112;2023-06-14T00:17:32;17.50;64.70
6008;DHT22;3032;49.484;11.112;2023-06-14T00:19:59;17.40;64.90
6008;DHT22;3032;49.484;11.112;2023-06-14T00:22:25;17.40;65.40
6008;DHT22;3032;49.484;11.112;2023-06-14T00:24:52;17.90;66.00
6008;DHT22;3032;49.484;11.112;2023-06-14T00:27:17;17.30;65.90
6008;DHT22;3032;49.484;11.112;2023-06-14T00:29:43;17.30;65.90
6008;DHT22;3032;49.484;11.112;2023-06-14T00:32:09;17.10;66.60
6008;DHT22;3032;49.484;11.112;2023-06-14T00:34:34;17.00;66.90
6008;DHT22;3032;49.484;11.112;2023-06-14T00:37:00;17.00;66.90
6008;DHT22;3032;49.484;11.112;2023-06-14T00:39:26;17.10;67.60
6008;DHT22;3032;49.484;11.112;2023-06-14T00:41:52;17.00;68.20
6008;DHT22;3032;49.484;11.112;2023-06-14T00:44:18;16.70;69.10
6008;DHT22;3032;49.484;11.112;2023-06-14T00:46:45;16.70;70.10
6008;DHT22;3032;49.484;11.112;2023-06-14T00:49:12;16.70;70.70
6008;DHT22;3032;49.484;11.112;2023-06-14T00:51:38;16.70;71.10
6008;DHT22;3032;49.484;11.112;2023-06-14T00:54:04;16.60;71.60
6008;DHT22;3032;49.484;11.112;2023-06-14T00:56:30;16.40;72.90
6008;DHT22;3032;49.484;11.112;2023-06-14T00:58:57;16.30;74.00
6008;DHT22;3032;49.484;11.112;2023-06-14T01:01:23;16.10;75.30
6008;DHT22;3032;49.484;11.112;2023-06-14T01:03:49;16.10;75.50
6008;DHT22;3032;49.484;11.112;2023-06-14T01:06:31;16.10;76.00
6008;DHT22;3032;49.484;11.112;2023-06-14T01:09:03;16.10;77.20
6008;DHT22;3032;49.484;11.112;2023-06-14T01:11:35;16.10;77.60
6008;DHT22;3032;49.484;11.112;2023-06-14T01:14:02;15.90;78.20
6008;DHT22;3032;49.484;11.112;2023-06-14T01:16:29;15.90;78.80
6008;DHT22;3032;49.484;11.112;2023-06-14T01:18:56;16.10;79.20
6008;DHT22;3032;49.484;11.112;2023-06-14T01:21:24;16.10;79.60
6008;DHT22;3032;49.484;11.112;2023-06-14T01:23:50;15.90;80.70
6008;DHT22;3032;49.484;11.112;2023-06-14T01:26:20;16.00;81.00
6008;DHT22;3032;49.484;11.112;2023-06-14T01:28:47;16.10;80.00
6008;DHT22;3032;49.484;11.112;2023-06-14T01:31:20;15.80;81.80
6008;DHT22;3032;49.484;11.112;2023-06-14T01:33:48;15.60;84.00
6008;DHT22;3032;49.484;11.112;2023-06-14T01:36:15;15.80;83.70
6008;DHT22;3032;49.484;11.112;2023-06-14T01:38:42;16.00;82.80
6008;DHT22;3032;49.484;11.112;2023-06-14T01:41:08;16.20;81.10
6008;DHT22;3032;49.484;11.112;2023-06-14T01:43:35;16.30;81.40
6008;DHT22;3032;49.484;11.112;2023-06-14T01:46:02;16.40;81.70
6008;DHT22;3032;49.484;11.112;2023-06-14T01:48:28;16.20;81.40
6008;DHT22;3032;49.484;11.112;2023-06-14T01:50:54;16.20;81.80
6008;DHT22;3032;49.484;11.112;2023-06-14T01:53:19;16.10;82.70
6008;DHT22;3032;49.484;11.112;2023-06-14T01:55:46;16.00;82.80
6008;DHT22;3032;49.484;11.112;2023-06-14T01:58:14;16.00;86.30
6008;DHT22;3032;49.484;11.112;2023-06-14T02:00:41;16.00;85.10
6008;DHT22;3032;49.484;11.112;2023-06-14T02:03:08;16.10;84.30
6008;DHT22;3032;49.484;11.112;2023-06-14T02:05:34;15.90;84.10
6008;DHT22;3032;49.484;11.112;2023-06-14T02:08:00;15.80;85.50
6008;DHT22;3032;49.484;11.112;2023-06-14T02:10:26;15.70;85.50
6008;DHT22;3032;49.484;11.112;2023-06-14T02:12:51;15.70;86.50
6008;DHT22;3032;49.484;11.112;2023-06-14T02:15:17;15.40;88.70
6008;DHT22;3032;49.484;11.112;2023-06-14T02:17:45;15.20;91.30
6008;DHT22;3032;49.484;11.112;2023-06-14T02:20:12;14.90;92.70
6008;DHT22;3032;49.484;11.112;2023-06-14T02:22:38;15.00;92.40
6008;DHT22;3032;49.484;11.112;2023-06-14T02:25:04;15.00;92.80
6008;DHT22;3032;49.484;11.112;2023-06-14T02:27:30;15.10;92.60
6008;DHT22;3032;49.484;11.112;2023-06-14T02:29:55;15.00;93.10
6008;DHT22;3032;49.484;11.112;2023-06-14T02:32:21;15.00;93.20
6008;DHT22;3032;49.484;11.112;2023-06-14T02:34:46;15.10;93.60
6008;DHT22;3032;49.484;11.112;2023-06-14T02:37:16;15.00;93.20
6008;DHT22;3032;49.484;11.112;2023-06-14T02:39:41;15.10;94.40
6008;DHT22;3032;49.484;11.112;2023-06-14T02:42:07;15.10;93.40
6008;DHT22;3032;49.484;11.112;2023-06-14T02:44:33;15.00;94.60
6008;DHT22;3032;49.484;11.112;2023-06-14T02:46:58;15.00;95.40
6008;DHT22;3032;49.484;11.112;2023-06-14T02:49:26;15.10;96.30
6008;DHT22;3032;49.484;11.112;2023-06-14T02:51:51;14.90;96.20
6008;DHT22;3032;49.484;11.112;2023-06-14T02:54:17;14.70;96.90
6008;DHT22;3032;49.484;11.112;2023-06-14T02:56:43;14.90;96.90
6008;DHT22;3032;49.484;11.112;2023-06-14T02:59:08;14.80;97.50
6008;DHT22;3032;49.484;11.112;2023-06-14T03:01:34;14.80;97.50
6008;DHT22;3032;49.484;11.112;2023-06-14T03:04:03;14.80;97.70
6008;DHT22;3032;49.484;11.112;2023-06-14T03:06:29;14.70;98.10
6008;DHT22;3032;49.484;11.112;2023-06-14T03:08:59;14.80;98.20
6008;DHT22;3032;49.484;11.112;2023-06-14T03:11:25;14.70;99.00
6008;DHT22;3032;49.484;11.112;2023-06-14T03:13:51;14.60;99.90
6008;DHT22;3032;49.484;11.112;2023-06-14T03:16:17;14.60;99.90
6008;DHT22;3032;49.484;11.112;2023-06-14T03:18:50;14.60;99.90
6008;DHT22;3032;49.484;11.112;2023-06-14T03:21:15;14.50;99.90
6008;DHT22;3032;49.484;11.112;2023-06-14T03:23:42;14.30;99.90
6008;DHT22;3032;49.484;11.112;2023-06-14T03:26:08;14.30;99.90
6008;DHT22;3032;49.484;11.112;2023-06-14T03:28:33;14.30;99.90
6008;DHT22;3032;49.484;11.112;2023-06-14T03:30:59;14.10;99.90
6008;DHT22;3032;49.484;11.112;2023-06-14T03:33:25;13.90;99.90
6008;DHT22;3032;49.484;11.112;2023-06-14T03:35:51;14.10;99.90
6008;DHT22;3032;49.484;11.112;2023-06-14T03:38:17;14.20;99.90
6008;DHT22;3032;49.484;11.112;2023-06-14T03:40:42;14.10;99.90
6008;DHT22;3032;49.484;11.112;2023-06-14T03:43:09;14.10;99.90
6008;DHT22;3032;49.484;11.112;2023-06-14T03:45:35;14.20;99.90
6008;DHT22;3032;49.484;11.112;2023-06-14T03:48:01;14.20;99.90
6008;DHT22;3032;49.484;11.112;2023-06-14T03:50:26;14.10;99.90
6008;DHT22;3032;49.484;11.112;2023-06-14T03:52:52;14.30;99.90
6008;DHT22;3032;49.484;11.112;2023-06-14T03:55:18;14.20;99.90
6008;DHT22;3032;49.484;11.112;2023-06-14T03:57:44;14.30;99.90
6008;DHT22;3032;49.484;11.112;2023-06-14T04:00:10;14.10;99.90
6008;DHT22;3032;49.484;11.112;2023-06-14T04:02:38;14.30;99.90
6008;DHT22;3032;49.484;11.112;2023-06-14T04:05:03;14.40;99.90
6008;DHT22;3032;49.484;11.112;2023-06-14T04:07:30;14.40;99.90
6008;DHT22;3032;49.484;11.112;2023-06-14T04:09:56;14.60;99.90
6008;DHT22;3032;49.484;11.112;2023-06-14T04:12:21;14.60;99.90
6008;DHT22;3032;49.484;11.112;2023-06-14T04:14:47;14.80;99.90
6008;DHT22;3032;49.484;11.112;2023-06-14T04:17:12;14.90;99.90
6008;DHT22;3032;49.484;11.112;2023-06-14T04:19:38;15.00;99.90
6008;DHT22;3032;49.484;11.112;2023-06-14T04:22:04;15.00;99.90
6008;DHT22;3032;49.484;11.112;2023-06-14T04:24:29;15.10;99.90
6008;DHT22;3032;49.484;11.112;2023-06-14T04:26:58;15.40;99.90
6008;DHT22;3032;49.484;11.112;2023-06-14T04:29:24;15.20;99.90
6008;DHT22;3032;49.484;11.112;2023-06-14T04:31:54;15.00;99.90
6008;DHT22;3032;49.484;11.112;2023-06-14T04:34:20;15.20;99.90
6008;DHT22;3032;49.484;11.112;2023-06-14T04:36:47;15.50;99.90
6008;DHT22;3032;49.484;11.112;2023-06-14T04:39:20;16.00;99.90
6008;DHT22;3032;49.484;11.112;2023-06-14T04:41:48;17.30;99.90
6008;DHT22;3032;49.484;11.112;2023-06-14T04:44:18;18.50;98.30
6008;DHT22;3032;49.484;11.112;2023-06-14T04:46:45;19.70;96.20
6008;DHT22;3032;49.484;11.112;2023-06-14T04:49:14;20.40;93.60
6008;DHT22;3032;49.484;11.112;2023-06-14T04:51:41;20.60;90.90
6008;DHT22;3032;49.484;11.112;2023-06-14T04:54:08;20.80;91.10
6008;DHT22;3032;49.484;11.112;2023-06-14T04:56:35;21.40;90.80
6008;DHT22;3032;49.484;11.112;2023-06-14T04:59:02;22.10;87.30
6008;DHT22;3032;49.484;11.112;2023-06-14T05:01:30;23.10;84.20
6008;DHT22;3032;49.484;11.112;2023-06-14T05:03:57;23.70;79.70
6008;DHT22;3032;49.484;11.112;2023-06-14T05:06:23;24.20;77.60
6008;DHT22;3032;49.484;11.112;2023-06-14T05:08:49;24.60;74.80
6008;DHT22;3032;49.484;11.112;2023-06-14T05:11:14;25.10;74.00
6008;DHT22;3032;49.484;11.112;2023-06-14T05:13:42;25.20;72.90
6008;DHT22;3032;49.484;11.112;2023-06-14T05:16:08;24.00;72.90
6008;DHT22;3032;49.484;11.112;2023-06-14T05:18:34;24.40;73.50
6008;DHT22;3032;49.484;11.112;2023-06-14T05:21:01;25.50;72.00
6008;DHT22;3032;49.484;11.112;2023-06-14T05:23:26;25.80;70.60
6008;DHT22;3032;49.484;11.112;2023-06-14T05:25:52;26.00;70.40
6008;DHT22;3032;49.484;11.112;2023-06-14T05:28:18;26.50;68.80
6008;DHT22;3032;49.484;11.112;2023-06-14T05:30:43;27.70;68.00
6008;DHT22;3032;49.484;11.112;2023-06-14T05:33:09;27.70;64.10
6008;DHT22;3032;49.484;11.112;2023-06-14T05:35:35;27.90;64.70
6008;DHT22;3032;49.484;11.112;2023-06-14T05:38:00;26.30;65.40
6008;DHT22;3032;49.484;11.112;2023-06-14T05:40:26;26.30;67.00
6008;DHT22;3032;49.484;11.112;2023-06-14T05:42:52;25.80;67.70
6008;DHT22;3032;49.484;11.112;2023-06-14T05:45:17;25.60;67.00
6008;DHT22;3032;49.484;11.112;2023-06-14T05:47:43;25.70;68.30
6008;DHT22;3032;49.484;11.112;2023-06-14T05:50:09;26.10;66.30
6008;DHT22;3032;49.484;11.112;2023-06-14T05:52:35;26.90;65.80
6008;DHT22;3032;49.484;11.112;2023-06-14T05:55:03;26.10;64.80
6008;DHT22;3032;49.484;11.112;2023-06-14T05:57:28;24.90;67.20
6008;DHT22;3032;49.484;11.112;2023-06-14T05:59:54;25.50;68.60
6008;DHT22;3032;49.484;11.112;2023-06-14T06:02:20;25.80;67.70
6008;DHT22;3032;49.484;11.112;2023-06-14T06:04:45;25.80;66.60
6008;DHT22;3032;49.484;11.112;2023-06-14T06:07:11;26.80;66.00
6008;DHT22;3032;49.484;11.112;2023-06-14T06:09:36;25.90;65.90
6008;DHT22;3032;49.484;11.112;2023-06-14T06:12:02;25.00;66.80
6008;DHT22;3032;49.484;11.112;2023-06-14T06:14:28;24.20;68.00
6008;DHT22;3032;49.484;11.112;2023-06-14T06:16:54;24.10;69.30
6008;DHT22;3032;49.484;11.112;2023-06-14T06:19:20;25.20;68.70
6008;DHT22;3032;49.484;11.112;2023-06-14T06:21:45;27.20;66.00
6008;DHT22;3032;49.484;11.112;2023-06-14T06:24:11;25.90;65.60
6008;DHT22;3032;49.484;11.112;2023-06-14T06:26:37;25.20;67.50
6008;DHT22;3032;49.484;11.112;2023-06-14T06:29:03;24.40;68.70
6008;DHT22;3032;49.484;11.112;2023-06-14T06:31:28;24.70;69.30
6008;DHT22;3032;49.484;11.112;2023-06-14T06:33:55;27.20;67.10
6008;DHT22;3032;49.484;11.112;2023-06-14T06:36:20;28.60;62.50
6008;DHT22;3032;49.484;11.112;2023-06-14T06:38:47;28.70;61.30
6008;DHT22;3032;49.484;11.112;2023-06-14T06:41:13;28.00;61.00
6008;DHT22;3032;49.484;11.112;2023-06-14T06:43:39;27.80;60.30
6008;DHT22;3032;49.484;11.112;2023-06-14T06:46:04;24.60;65.20
6008;DHT22;3032;49.484;11.112;2023-06-14T06:48:30;23.80;67.80
6008;DHT22;3032;49.484;11.112;2023-06-14T06:50:56;25.50;66.60
6008;DHT22;3032;49.484;11.112;2023-06-14T06:53:21;27.30;64.00
6008;DHT22;3032;49.484;11.112;2023-06-14T06:55:48;26.10;63.80
6008;DHT22;3032;49.484;11.112;2023-06-14T06:58:14;25.60;64.60
6008;DHT22;3032;49.484;11.112;2023-06-14T07:00:40;25.90;65.50
6008;DHT22;3032;49.484;11.112;2023-06-14T07:03:06;26.50;63.60
6008;DHT22;3032;49.484;11.112;2023-06-14T07:05:31;26.90;63.70
6008;DHT22;3032;49.484;11.112;2023-06-14T07:07:57;27.20;62.30
6008;DHT22;3032;49.484;11.112;2023-06-14T07:10:23;26.30;62.90
6008;DHT22;3032;49.484;11.112;2023-06-14T07:12:53;27.40;62.10
6008;DHT22;3032;49.484;11.112;2023-06-14T07:15:18;29.60;59.80
6008;DHT22;3032;49.484;11.112;2023-06-14T07:17:44;30.70;57.90
6008;DHT22;3032;49.484;11.112;2023-06-14T07:20:10;30.10;55.20
6008;DHT22;3032;49.484;11.112;2023-06-14T07:22:40;29.80;55.80
6008;DHT22;3032;49.484;11.112;2023-06-14T07:25:09;28.70;56.80
6008;DHT22;3032;49.484;11.112;2023-06-14T07:27:37;28.20;56.90
6008;DHT22;3032;49.484;11.112;2023-06-14T07:30:03;28.70;57.00
6008;DHT22;3032;49.484;11.112;2023-06-14T07:32:29;28.90;56.80
6008;DHT22;3032;49.484;11.112;2023-06-14T07:34:55;29.60;56.40
6008;DHT22;3032;49.484;11.112;2023-06-14T07:37:20;29.30;55.10
6008;DHT22;3032;49.484;11.112;2023-06-14T07:39:46;30.60;55.20
6008;DHT22;3032;49.484;11.112;2023-06-14T07:42:11;29.60;53.80
6008;DHT22;3032;49.484;11.112;2023-06-14T07:44:37;27.00;56.10
6008;DHT22;3032;49.484;11.112;2023-06-14T07:47:02;25.70;58.30
6008;DHT22;3032;49.484;11.112;2023-06-14T07:49:28;25.30;58.30
6008;DHT22;3032;49.484;11.112;2023-06-14T07:51:54;24.90;59.80
6008;DHT22;3032;49.484;11.112;2023-06-14T07:54:20;26.20;59.80
6008;DHT22;3032;49.484;11.112;2023-06-14T07:56:50;28.40;58.50
6008;DHT22;3032;49.484;11.112;2023-06-14T07:59:16;28.70;55.50
6008;DHT22;3032;49.484;11.112;2023-06-14T08:01:42;28.60;56.40
6008;DHT22;3032;49.484;11.112;2023-06-14T08:04:15;29.40;55.40
6008;DHT22;3032;49.484;11.112;2023-06-14T08:06:41;30.40;54.20
6008;DHT22;3032;49.484;11.112;2023-06-14T08:09:09;30.20;54.80
6008;DHT22;3032;49.484;11.112;2023-06-14T08:11:35;29.70;53.40
6008;DHT22;3032;49.484;11.112;2023-06-14T08:14:01;30.20;53.60
6008;DHT22;3032;49.484;11.112;2023-06-14T08:16:26;31.60;52.30
6008;DHT22;3032;49.484;11.112;2023-06-14T08:18:52;32.50;50.80
6008;DHT22;3032;49.484;11.112;2023-06-14T08:21:17;32.60;50.10
6008;DHT22;3032;49.484;11.112;2023-06-14T08:23:43;31.20;50.40
6008;DHT22;3032;49.484;11.112;2023-06-14T08:26:09;31.60;51.30
6008;DHT22;3032;49.484;11.112;2023-06-14T08:28:35;32.10;50.20
6008;DHT22;3032;49.484;11.112;2023-06-14T08:31:01;32.60;49.20
6008;DHT22;3032;49.484;11.112;2023-06-14T08:33:27;33.70;48.70
6008;DHT22;3032;49.484;11.112;2023-06-14T08:35:52;32.30;48.20
6008;DHT22;3032;49.484;11.112;2023-06-14T08:38:18;30.40;50.10
6008;DHT22;3032;49.484;11.112;2023-06-14T08:40:47;29.40;51.10
6008;DHT22;3032;49.484;11.112;2023-06-14T08:43:13;30.50;52.00
6008;DHT22;3032;49.484;11.112;2023-06-14T08:45:39;31.90;50.00
6008;DHT22;3032;49.484;11.112;2023-06-14T08:48:07;31.70;48.80
6008;DHT22;3032;49.484;11.112;2023-06-14T08:50:32;30.10;49.60
6008;DHT22;3032;49.484;11.112;2023-06-14T08:53:00;29.90;50.30
6008;DHT22;3032;49.484;11.112;2023-06-14T08:55:28;32.20;49.30
6008;DHT22;3032;49.484;11.112;2023-06-14T08:57:56;29.90;49.30
6008;DHT22;3032;49.484;11.112;2023-06-14T09:00:26;28.40;51.40
6008;DHT22;3032;49.484;11.112;2023-06-14T09:02:52;26.60;53.30
6008;DHT22;3032;49.484;11.112;2023-06-14T09:05:26;25.60;55.10
6008;DHT22;3032;49.484;11.112;2023-06-14T09:07:52;26.10;55.50
6008;DHT22;3032;49.484;11.112;2023-06-14T09:10:21;27.70;55.40
6008;DHT22;3032;49.484;11.112;2023-06-14T09:12:47;28.40;51.70
6008;DHT22;3032;49.484;11.112;2023-06-14T09:15:12;29.30;51.90
6008;DHT22;3032;49.484;11.112;2023-06-14T09:17:39;31.20;50.10
6008;DHT22;3032;49.484;11.112;2023-06-14T09:20:06;32.60;48.40
6008;DHT22;3032;49.484;11.112;2023-06-14T09:22:39;32.00;46.80
6008;DHT22;3032;49.484;11.112;2023-06-14T09:25:05;32.60;47.30
6008;DHT22;3032;49.484;11.112;2023-06-14T09:27:32;32.10;46.10
6008;DHT22;3032;49.484;11.112;2023-06-14T09:29:58;30.90;47.60
6008;DHT22;3032;49.484;11.112;2023-06-14T09:32:24;29.60;48.60
6008;DHT22;3032;49.484;11.112;2023-06-14T09:34:50;27.20;51.10
6008;DHT22;3032;49.484;11.112;2023-06-14T09:37:36;26.80;51.10
6008;DHT22;3032;49.484;11.112;2023-06-14T09:40:04;27.40;50.50
6008;DHT22;3032;49.484;11.112;2023-06-14T09:42:30;26.90;51.20
6008;DHT22;3032;49.484;11.112;2023-06-14T09:44:57;27.10;52.20
6008;DHT22;3032;49.484;11.112;2023-06-14T09:47:23;27.20;51.80
6008;DHT22;3032;49.484;11.112;2023-06-14T09:49:50;28.50;50.40
6008;DHT22;3032;49.484;11.112;2023-06-14T09:52:19;29.60;48.70
6008;DHT22;3032;49.484;11.112;2023-06-14T09:54:46;29.50;48.80
6008;DHT22;3032;49.484;11.112;2023-06-14T09:57:14;28.80;48.30
6008;DHT22;3032;49.484;11.112;2023-06-14T09:59:53;27.40;49.10
6008;DHT22;3032;49.484;11.112;2023-06-14T10:02:26;27.50;49.60
6008;DHT22;3032;49.484;11.112;2023-06-14T10:05:02;27.40;49.60
6008;DHT22;3032;49.484;11.112;2023-06-14T10:07:35;27.10;50.00
6008;DHT22;3032;49.484;11.112;2023-06-14T10:10:05;26.90;51.30
6008;DHT22;3032;49.484;11.112;2023-06-14T10:12:31;27.20;50.10
6008;DHT22;3032;49.484;11.112;2023-06-14T10:14:56;26.90;50.30
6008;DHT22;3032;49.484;11.112;2023-06-14T10:17:53;26.60;51.30
6008;DHT22;3032;49.484;11.112;2023-06-14T10:20:41;26.20;52.40
6008;DHT22;3032;49.484;11.112;2023-06-14T10:23:15;26.40;52.10
6008;DHT22;3032;49.484;11.112;2023-06-14T10:25:42;25.50;52.50
6008;DHT22;3032;49.484;11.112;2023-06-14T10:28:18;25.00;52.60
6008;DHT22;3032;49.484;11.112;2023-06-14T10:31:04;24.70;53.70
6008;DHT22;3032;49.484;11.112;2023-06-14T10:33:30;24.70;52.40
6008;DHT22;3032;49.484;11.112;2023-06-14T10:39:07;25.90;51.80
6008;DHT22;3032;49.484;11.112;2023-06-14T10:41:36;26.80;50.60
6008;DHT22;3032;49.484;11.112;2023-06-14T10:46:40;27.40;48.60
6008;DHT22;3032;49.484;11.112;2023-06-14T10:49:06;28.40;48.50
6008;DHT22;3032;49.484;11.112;2023-06-14T10:51:42;29.00;48.10
6008;DHT22;3032;49.484;11.112;2023-06-14T10:54:15;29.90;47.90
6008;DHT22;3032;49.484;11.112;2023-06-14T10:59:14;29.80;47.80
6008;DHT22;3032;49.484;11.112;2023-06-14T11:02:06;29.10;48.60
6008;DHT22;3032;49.484;11.112;2023-06-14T11:04:47;28.60;48.50
6008;DHT22;3032;49.484;11.112;2023-06-14T11:12:54;28.30;49.60
6008;DHT22;3032;49.484;11.112;2023-06-14T11:15:20;27.20;48.40
6008;DHT22;3032;49.484;11.112;2023-06-14T11:17:56;26.90;49.70
6008;DHT22;3032;49.484;11.112;2023-06-14T11:20:26;27.00;49.40
6008;DHT22;3032;49.484;11.112;2023-06-14T11:22:52;26.70;51.40
6008;DHT22;3032;49.484;11.112;2023-06-14T11:25:18;25.90;51.00
6008;DHT22;3032;49.484;11.112;2023-06-14T11:27:44;25.70;51.60
6008;DHT22;3032;49.484;11.112;2023-06-14T11:30:11;26.30;50.50
6008;DHT22;3032;49.484;11.112;2023-06-14T11:32:37;27.10;50.00
6008;DHT22;3032;49.484;11.112;2023-06-14T11:35:04;27.80;49.20
6008;DHT22;3032;49.484;11.112;2023-06-14T11:37:31;27.80;48.40
6008;DHT22;3032;49.484;11.112;2023-06-14T11:39:59;26.70;49.20
6008;DHT22;3032;49.484;11.112;2023-06-14T11:42:26;27.50;48.90
6008;DHT22;3032;49.484;11.112;2023-06-14T11:44:53;28.60;48.00
6008;DHT22;3032;49.484;11.112;2023-06-14T11:47:19;30.70;46.70
6008;DHT22;3032;49.484;11.112;2023-06-14T11:49:45;31.40;43.90
6008;DHT22;3032;49.484;11.112;2023-06-14T11:52:11;29.50;45.70
6008;DHT22;3032;49.484;11.112;2023-06-14T11:54:37;29.60;45.30
6008;DHT22;3032;49.484;11.112;2023-06-14T11:57:03;29.70;45.30
6008;DHT22;3032;49.484;11.112;2023-06-14T11:59:29;29.50;45.30
6008;DHT22;3032;49.484;11.112;2023-06-14T12:01:56;30.10;43.80
6008;DHT22;3032;49.484;11.112;2023-06-14T12:04:29;29.80;43.90
6008;DHT22;3032;49.484;11.112;2023-06-14T12:06:55;29.20;45.20
6008;DHT22;3032;49.484;11.112;2023-06-14T12:09:23;29.40;45.90
6008;DHT22;3032;49.484;11.112;2023-06-14T12:11:49;29.60;45.50
6008;DHT22;3032;49.484;11.112;2023-06-14T12:14:15;30.00;45.80
6008;DHT22;3032;49.484;11.112;2023-06-14T12:16:41;30.30;44.90
6008;DHT22;3032;49.484;11.112;2023-06-14T12:19:15;30.60;44.40
6008;DHT22;3032;49.484;11.112;2023-06-14T12:21:42;31.10;45.20
6008;DHT22;3032;49.484;11.112;2023-06-14T12:24:09;31.10;44.20
6008;DHT22;3032;49.484;11.112;2023-06-14T12:26:41;30.40;44.80
6008;DHT22;3032;49.484;11.112;2023-06-14T12:29:07;30.20;45.10
6008;DHT22;3032;49.484;11.112;2023-06-14T12:31:33;29.90;44.70
6008;DHT22;3032;49.484;11.112;2023-06-14T12:33:59;29.70;45.00
6008;DHT22;3032;49.484;11.112;2023-06-14T12:36:25;29.40;45.50
6008;DHT22;3032;49.484;11.112;2023-06-14T12:38:51;30.30;45.10
6008;DHT22;3032;49.484;11.112;2023-06-14T12:41:20;31.50;44.00
6008;DHT22;3032;49.484;11.112;2023-06-14T12:43:47;32.80;44.00
6008;DHT22;3032;49.484;11.112;2023-06-14T12:46:13;32.10;42.50
6008;DHT22;3032;49.484;11.112;2023-06-14T12:48:38;31.50;42.30
6008;DHT22;3032;49.484;11.112;2023-06-14T12:51:04;30.10;44.10
6008;DHT22;3032;49.484;11.112;2023-06-14T12:53:29;30.60;44.60
6008;DHT22;3032;49.484;11.112;2023-06-14T12:55:55;30.80;44.90
6008;DHT22;3032;49.484;11.112;2023-06-14T12:58:20;31.10;43.30
6008;DHT22;3032;49.484;11.112;2023-06-14T13:00:47;31.40;43.20
6008;DHT22;3032;49.484;11.112;2023-06-14T13:03:12;31.60;43.80
6008;DHT22;3032;49.484;11.112;2023-06-14T13:05:38;30.80;43.70
6008;DHT22;3032;49.484;11.112;2023-06-14T13:08:07;28.00;45.80
6008;DHT22;3032;49.484;11.112;2023-06-14T13:10:34;27.20;47.30
6008;DHT22;3032;49.484;11.112;2023-06-14T13:13:00;27.40;47.40
6008;DHT22;3032;49.484;11.112;2023-06-14T13:15:26;28.00;46.30
6008;DHT22;3032;49.484;11.112;2023-06-14T13:17:52;28.40;46.70
6008;DHT22;3032;49.484;11.112;2023-06-14T13:20:18;29.50;45.10
6008;DHT22;3032;49.484;11.112;2023-06-14T13:22:44;30.30;43.00
6008;DHT22;3032;49.484;11.112;2023-06-14T13:25:09;31.00;42.60
6008;DHT22;3032;49.484;11.112;2023-06-14T13:27:35;31.80;41.90
6008;DHT22;3032;49.484;11.112;2023-06-14T13:30:01;32.70;41.60
6008;DHT22;3032;49.484;11.112;2023-06-14T13:32:27;32.80;40.60
6008;DHT22;3032;49.484;11.112;2023-06-14T13:34:53;31.90;42.20
6008;DHT22;3032;49.484;11.112;2023-06-14T13:37:19;31.90;41.30
6008;DHT22;3032;49.484;11.112;2023-06-14T13:39:45;32.70;39.40
6008;DHT22;3032;49.484;11.112;2023-06-14T13:42:10;33.10;39.90
6008;DHT22;3032;49.484;11.112;2023-06-14T13:44:36;34.10;40.00
6008;DHT22;3032;49.484;11.112;2023-06-14T13:47:02;34.90;38.80
6008;DHT22;3032;49.484;11.112;2023-06-14T13:49:28;34.20;39.30
6008;DHT22;3032;49.484;11.112;2023-06-14T13:51:53;33.00;39.50
6008;DHT22;3032;49.484;11.112;2023-06-14T13:54:20;30.00;42.80
6008;DHT22;3032;49.484;11.112;2023-06-14T13:56:47;29.30;43.20
6008;DHT22;3032;49.484;11.112;2023-06-14T13:59:12;28.20;44.60
6008;DHT22;3032;49.484;11.112;2023-06-14T14:01:38;27.70;46.20
6008;DHT22;3032;49.484;11.112;2023-06-14T14:04:04;27.90;46.10
6008;DHT22;3032;49.484;11.112;2023-06-14T14:06:30;28.10;46.00
6008;DHT22;3032;49.484;11.112;2023-06-14T14:08:56;28.30;45.90
6008;DHT22;3032;49.484;11.112;2023-06-14T14:11:22;28.60;45.30
6008;DHT22;3032;49.484;11.112;2023-06-14T14:13:47;28.60;45.70
6008;DHT22;3032;49.484;11.112;2023-06-14T14:16:13;28.70;45.50
6008;DHT22;3032;49.484;11.112;2023-06-14T14:18:39;28.80;45.70
6008;DHT22;3032;49.484;11.112;2023-06-14T14:21:04;28.80;44.60
6008;DHT22;3032;49.484;11.112;2023-06-14T14:23:33;29.00;45.50
6008;DHT22;3032;49.484;11.112;2023-06-14T14:25:58;29.30;44.80
6008;DHT22;3032;49.484;11.112;2023-06-14T14:28:28;29.70;44.20
6008;DHT22;3032;49.484;11.112;2023-06-14T14:30:54;29.60;43.10
6008;DHT22;3032;49.484;11.112;2023-06-14T14:33:20;29.30;43.40
6008;DHT22;3032;49.484;11.112;2023-06-14T14:35:46;28.90;43.20
6008;DHT22;3032;49.484;11.112;2023-06-14T14:38:12;29.20;43.20
6008;DHT22;3032;49.484;11.112;2023-06-14T14:40:39;29.50;43.60
6008;DHT22;3032;49.484;11.112;2023-06-14T14:43:05;29.80;43.90
6008;DHT22;3032;49.484;11.112;2023-06-14T14:45:31;29.60;42.10
6008;DHT22;3032;49.484;11.112;2023-06-14T14:47:57;29.40;42.20
6008;DHT22;3032;49.484;11.112;2023-06-14T14:50:22;29.60;42.40
6008;DHT22;3032;49.484;11.112;2023-06-14T14:52:48;28.90;43.20
6008;DHT22;3032;49.484;11.112;2023-06-14T14:55:13;28.40;45.20
6008;DHT22;3032;49.484;11.112;2023-06-14T14:57:39;27.30;45.80
6008;DHT22;3032;49.484;11.112;2023-06-14T15:00:06;26.40;46.80
6008;DHT22;3032;49.484;11.112;2023-06-14T15:02:31;25.40;47.00
6008;DHT22;3032;49.484;11.112;2023-06-14T15:04:57;25.70;47.40
6008;DHT22;3032;49.484;11.112;2023-06-14T15:07:32;26.40;46.90
6008;DHT22;3032;49.484;11.112;2023-06-14T15:10:02;27.00;46.30
6008;DHT22;3032;49.484;11.112;2023-06-14T15:12:27;27.30;45.30
6008;DHT22;3032;49.484;11.112;2023-06-14T15:14:53;26.50;46.00
6008;DHT22;3032;49.484;11.112;2023-06-14T15:17:19;26.50;46.20
6008;DHT22;3032;49.484;11.112;2023-06-14T15:19:46;26.30;46.90
6008;DHT22;3032;49.484;11.112;2023-06-14T15:22:13;26.40;46.70
6008;DHT22;3032;49.484;11.112;2023-06-14T15:24:40;26.70;46.10
6008;DHT22;3032;49.484;11.112;2023-06-14T15:27:06;26.50;45.40
6008;DHT22;3032;49.484;11.112;2023-06-14T15:29:31;25.70;46.60
6008;DHT22;3032;49.484;11.112;2023-06-14T15:31:57;25.70;46.70
6008;DHT22;3032;49.484;11.112;2023-06-14T15:34:23;25.90;45.50
6008;DHT22;3032;49.484;11.112;2023-06-14T15:36:49;25.90;45.40
6008;DHT22;3032;49.484;11.112;2023-06-14T15:39:15;26.60;44.60
6008;DHT22;3032;49.484;11.112;2023-06-14T15:41:41;26.40;44.10
6008;DHT22;3032;49.484;11.112;2023-06-14T15:44:06;26.70;43.70
6008;DHT22;3032;49.484;11.112;2023-06-14T15:46:32;25.90;44.50
6008;DHT22;3032;49.484;11.112;2023-06-14T15:48:58;25.60;44.60
6008;DHT22;3032;49.484;11.112;2023-06-14T15:51:23;25.70;44.80
6008;DHT22;3032;49.484;11.112;2023-06-14T15:53:49;25.40;45.50
6008;DHT22;3032;49.484;11.112;2023-06-14T15:56:14;26.00;46.10